createdAt,value
2019-03-22T00:00:22.211Z,103469.20
2019-03-22T00:02:54.275Z,103467.69
2019-03-22T00:05:26.265Z,103458.84
2019-03-22T00:08:00.233Z,103457.33
2019-03-22T00:10:32.233Z,103467.06
2019-03-22T00:13:05.495Z,103467.00
2019-03-22T00:15:37.723Z,103468.45
2019-03-22T00:18:09.850Z,103458.24
2019-03-22T00:20:42.129Z,103457.52
2019-03-22T00:23:14.261Z,103465.56
2019-03-22T00:25:46.397Z,103469.17
2019-03-22T00:28:20.194Z,103477.11
2019-03-22T00:30:52.880Z,103477.98
2019-03-22T00:33:24.857Z,103472.26
2019-03-22T00:35:57.227Z,103475.58
2019-03-22T00:38:32.811Z,103471.84
2019-03-22T00:41:04.929Z,103476.03
2019-03-22T00:43:36.943Z,103484.37
2019-03-22T00:46:09.127Z,103495.72
2019-03-22T00:48:41.588Z,103495.91
2019-03-22T00:51:13.628Z,103494.53
2019-03-22T00:53:45.638Z,103485.38
2019-03-22T00:56:17.751Z,103482.50
2019-03-22T00:58:49.761Z,103480.77
2019-03-22T01:01:21.766Z,103484.28
2019-03-22T01:03:53.747Z,103479.09
2019-03-22T01:06:26.029Z,103478.27
2019-03-22T01:08:58.333Z,103469.39
2019-03-22T01:11:30.331Z,103473.59
2019-03-22T01:14:02.370Z,103470.98
2019-03-22T01:16:34.430Z,103475.84
2019-03-22T01:19:06.434Z,103472.95
2019-03-22T01:21:38.440Z,103470.36
2019-03-22T01:24:10.480Z,103465.27
2019-03-22T01:26:42.438Z,103472.52
2019-03-22T01:29:14.388Z,103490.64
2019-03-22T01:31:46.440Z,103499.05
2019-03-22T01:34:18.416Z,103500.59
2019-03-22T01:36:50.716Z,103495.27
2019-03-22T01:39:25.980Z,103496.77
2019-03-22T01:41:58.678Z,103509.05
2019-03-22T01:44:30.694Z,103511.65
2019-03-22T01:47:02.955Z,103522.91
2019-03-22T01:49:35.409Z,103535.47
2019-03-22T01:52:07.475Z,103529.42
2019-03-22T01:54:39.545Z,103522.14
2019-03-22T01:57:11.611Z,103515.28
2019-03-22T01:59:43.597Z,103505.08
2019-03-22T02:02:15.851Z,103496.53
2019-03-22T02:04:47.986Z,103487.77
2019-03-22T02:07:20.164Z,103489.62
2019-03-22T02:09:52.325Z,103491.05
2019-03-22T02:12:24.476Z,103489.97
2019-03-22T02:14:56.460Z,103492.66
2019-03-22T02:17:28.433Z,103491.84
2019-03-22T02:20:01.005Z,103475.22
2019-03-22T02:22:33.015Z,103463.92
2019-03-22T02:25:07.871Z,103468.12
2019-03-22T02:27:40.034Z,103480.73
2019-03-22T02:30:15.522Z,103494.13
2019-03-22T02:32:47.572Z,103498.89
2019-03-22T02:35:28.617Z,103495.55
2019-03-22T02:37:53.240Z,103504.63
2019-03-22T02:40:25.581Z,103515.11
2019-03-22T02:42:57.686Z,103514.22
2019-03-22T02:45:29.684Z,103511.13
2019-03-22T02:48:01.778Z,103507.91
2019-03-22T02:50:33.759Z,103510.98
2019-03-22T02:53:07.205Z,103519.14
2019-03-22T02:55:39.877Z,103520.47
2019-03-22T02:58:20.642Z,103514.81
2019-03-22T03:00:45.989Z,103516.38
2019-03-22T03:03:17.972Z,103514.81
2019-03-22T03:05:50.243Z,103510.89
2019-03-22T03:08:22.298Z,103504.56
2019-03-22T03:10:54.279Z,103509.94
2019-03-22T03:13:26.453Z,103514.75
2019-03-22T03:15:58.438Z,103519.81
2019-03-22T03:18:30.996Z,103526.46
2019-03-22T03:21:02.993Z,103529.16
2019-03-22T03:23:35.039Z,103522.84
2019-03-22T03:26:07.113Z,103515.13
2019-03-22T03:28:39.129Z,103525.28
2019-03-22T03:31:11.532Z,103534.97
2019-03-22T03:33:43.700Z,103548.59
2019-03-22T03:36:15.730Z,103549.23
2019-03-22T03:38:47.728Z,103547.55
2019-03-22T03:41:19.731Z,103557.44
2019-03-22T03:43:51.871Z,103541.80
2019-03-22T03:46:23.872Z,103537.72
2019-03-22T03:48:55.977Z,103538.17
2019-03-22T03:51:27.959Z,103538.22
2019-03-22T03:53:59.962Z,103538.58
2019-03-22T03:56:31.924Z,103549.40
2019-03-22T03:59:03.971Z,103556.02
2019-03-22T04:01:35.971Z,103560.16
2019-03-22T04:04:08.271Z,103561.95
2019-03-22T04:06:40.549Z,103563.80
2019-03-22T04:09:12.580Z,103573.31
2019-03-22T04:11:44.738Z,103583.55
2019-03-22T04:14:16.752Z,103569.42
2019-03-22T04:16:48.754Z,103571.06
2019-03-22T04:19:21.538Z,103570.70
2019-03-22T04:21:53.517Z,103577.37
2019-03-22T04:24:25.553Z,103569.59
2019-03-22T04:26:57.561Z,103565.83
2019-03-22T04:29:29.611Z,103577.01
2019-03-22T04:32:01.603Z,103577.45
2019-03-22T04:34:33.639Z,103576.88
2019-03-22T04:37:05.970Z,103572.48
2019-03-22T04:39:37.997Z,103571.08
2019-03-22T04:42:10.926Z,103578.48
2019-03-22T04:44:42.937Z,103579.17
2019-03-22T04:47:19.693Z,103586.61
2019-03-22T04:49:53.509Z,103566.72
2019-03-22T04:52:27.939Z,103571.17
2019-03-22T04:55:02.627Z,103595.02
2019-03-22T04:57:35.762Z,103594.51
2019-03-22T05:00:23.591Z,103584.66
2019-03-22T05:02:56.096Z,103590.66
2019-03-22T05:05:29.709Z,103588.30
2019-03-22T05:08:02.524Z,103595.14
2019-03-22T05:10:37.552Z,103597.86
2019-03-22T05:13:11.090Z,103597.70
2019-03-22T05:15:44.178Z,103599.52
2019-03-22T05:18:16.933Z,103602.84
2019-03-22T05:20:51.898Z,103598.87
2019-03-22T05:23:25.727Z,103609.91
2019-03-22T05:26:00.099Z,103614.16
2019-03-22T05:28:33.748Z,103616.31
2019-03-22T05:31:22.116Z,103621.26
2019-03-22T05:33:54.185Z,103620.73
2019-03-22T05:36:26.229Z,103620.73
2019-03-22T05:38:58.255Z,103618.54
2019-03-22T05:41:30.320Z,103614.97
2019-03-22T05:44:02.802Z,103621.78
2019-03-22T05:46:34.842Z,103618.35
2019-03-22T05:49:06.864Z,103622.80
2019-03-22T05:51:38.925Z,103615.55
2019-03-22T05:54:11.030Z,103629.02
2019-03-22T05:56:43.079Z,103633.89
2019-03-22T05:59:15.100Z,103627.38
2019-03-22T06:01:47.095Z,103616.56
2019-03-22T06:04:19.269Z,103605.43
2019-03-22T06:06:51.406Z,103606.28
2019-03-22T06:09:23.433Z,103609.69
2019-03-22T06:11:56.289Z,103615.36
2019-03-22T06:14:28.322Z,103618.66
2019-03-22T06:17:00.365Z,103621.94
2019-03-22T06:19:32.379Z,103621.56
2019-03-22T06:22:04.723Z,103616.97
2019-03-22T06:24:36.744Z,103610.97
2019-03-22T06:27:09.527Z,103618.41
2019-03-22T06:29:53.402Z,103625.52
2019-03-22T06:32:15.543Z,103630.16
2019-03-22T06:34:53.870Z,103627.38
2019-03-22T06:37:27.221Z,103625.80
2019-03-22T06:40:00.499Z,103614.27
2019-03-22T06:42:43.201Z,103611.27
2019-03-22T06:45:35.726Z,103618.06
2019-03-22T06:48:18.353Z,103615.55
2019-03-22T06:51:16.308Z,103621.18
2019-03-22T06:53:56.996Z,103612.02
2019-03-22T06:56:29.453Z,103604.14
2019-03-22T06:59:05.320Z,103608.22
2019-03-22T07:01:41.251Z,103616.62
2019-03-22T07:04:13.537Z,103618.34
2019-03-22T07:06:55.154Z,103613.09
2019-03-22T07:09:31.754Z,103606.57
2019-03-22T07:12:11.152Z,103606.17
2019-03-22T07:14:47.679Z,103601.50
2019-03-22T07:17:19.952Z,103599.42
2019-03-22T07:19:52.320Z,103597.58
2019-03-22T07:22:25.147Z,103597.88
2019-03-22T07:24:57.249Z,103592.08
2019-03-22T07:27:29.619Z,103594.99
2019-03-22T07:30:01.679Z,103591.63
2019-03-22T07:32:33.873Z,103585.56
2019-03-22T07:35:06.940Z,103588.66
2019-03-22T07:37:38.994Z,103584.97
2019-03-22T07:40:12.746Z,103583.48
2019-03-22T07:42:44.786Z,103595.28
2019-03-22T07:45:17.086Z,103599.02
2019-03-22T07:47:49.182Z,103601.39
2019-03-22T07:50:21.225Z,103594.06
2019-03-22T07:52:55.002Z,103597.74
2019-03-22T07:55:27.868Z,103590.54
2019-03-22T07:58:05.555Z,103591.28
2019-03-22T08:00:40.941Z,103595.50
2019-03-22T08:03:15.478Z,103590.72
2019-03-22T08:05:51.432Z,103593.41
2019-03-22T08:08:24.486Z,103600.42
2019-03-22T08:10:58.054Z,103592.25
2019-03-22T08:13:30.095Z,103594.48
2019-03-22T08:16:04.574Z,103589.09
2019-03-22T08:18:49.346Z,103590.06
2019-03-22T08:21:31.640Z,103589.81
2019-03-22T08:24:05.302Z,103597.88
2019-03-22T08:26:37.855Z,103591.67
2019-03-22T08:29:10.018Z,103593.91
2019-03-22T08:31:42.081Z,103591.28
2019-03-22T08:34:14.810Z,103591.52
2019-03-22T08:36:46.953Z,103586.18
2019-03-22T08:39:20.044Z,103579.42
2019-03-22T08:41:52.100Z,103583.93
2019-03-22T08:44:24.135Z,103587.16
2019-03-22T08:46:56.183Z,103590.66
2019-03-22T08:49:28.905Z,103601.34
2019-03-22T08:52:01.942Z,103595.48
2019-03-22T08:54:38.277Z,103593.89
2019-03-22T08:57:10.888Z,103593.05
2019-03-22T08:59:45.819Z,103593.88
2019-03-22T09:02:21.193Z,103600.30
2019-03-22T09:05:08.106Z,103593.61
2019-03-22T09:07:53.565Z,103588.47
2019-03-22T09:10:28.917Z,103587.49
2019-03-22T09:13:10.579Z,103582.61
2019-03-22T09:15:46.496Z,103578.72
2019-03-22T09:18:30.217Z,103576.79
2019-03-22T09:21:16.900Z,103579.95
2019-03-22T09:23:56.934Z,103578.21
2019-03-22T09:52:42.910Z,103565.95
2019-03-22T09:55:15.465Z,103559.63
2019-03-22T09:57:49.564Z,103554.28
2019-03-22T10:00:33.735Z,103557.41
2019-03-22T10:03:10.773Z,103565.07
2019-03-22T10:05:43.711Z,103561.69
2019-03-22T10:08:29.138Z,103557.91
2019-03-22T10:11:08.028Z,103558.96
2019-03-22T10:14:05.149Z,103550.81
2019-03-22T10:20:20.725Z,103550.31
2019-03-22T10:22:55.863Z,103553.62
2019-03-22T10:25:28.787Z,103556.55
2019-03-22T10:31:42.472Z,103545.98
2019-03-22T10:34:25.087Z,103547.53
2019-03-22T10:37:03.704Z,103548.62
2019-03-22T10:40:03.981Z,103548.59
2019-03-22T10:42:41.083Z,103543.38
2019-03-22T10:45:14.118Z,103544.85
2019-03-22T10:47:48.705Z,103544.63
2019-03-22T10:59:30.444Z,103521.13
2019-03-22T11:08:22.143Z,103514.16
2019-03-22T11:10:54.263Z,103512.33
2019-03-22T11:13:26.349Z,103508.41
2019-03-22T11:26:37.636Z,103491.09
2019-03-22T11:29:09.727Z,103494.77
2019-03-22T11:31:42.167Z,103491.32
2019-03-22T11:34:19.296Z,103494.70
2019-03-22T11:36:52.830Z,103484.58
2019-03-22T11:39:25.239Z,103481.48
2019-03-22T11:41:57.344Z,103461.52
2019-03-22T11:44:29.406Z,103475.25
2019-03-22T11:47:06.181Z,103476.27
2019-03-22T11:49:41.021Z,103476.13
2019-03-22T11:52:14.617Z,103473.02
2019-03-22T11:54:58.786Z,103471.47
2019-03-22T11:57:34.909Z,103469.69
2019-03-22T12:00:33.908Z,103461.59
2019-03-22T12:03:10.777Z,103467.94
2019-03-22T12:05:44.442Z,103472.20
2019-03-22T12:08:17.275Z,103468.31
2019-03-22T12:10:51.425Z,103466.50
2019-03-22T12:13:23.687Z,103454.92
2019-03-22T12:15:56.501Z,103454.31
2019-03-22T12:18:28.830Z,103461.65
2019-03-22T12:21:01.928Z,103467.02
2019-03-22T12:33:14.916Z,103454.65
2019-03-22T12:35:48.581Z,103450.05
2019-03-22T12:38:21.363Z,103446.48
2019-03-22T12:40:53.398Z,103441.38
2019-03-22T12:43:26.988Z,103441.86
2019-03-22T12:45:59.119Z,103440.94
2019-03-22T12:48:31.326Z,103437.95
2019-03-22T12:51:03.462Z,103425.59
2019-03-22T12:53:35.569Z,103429.09
2019-03-22T12:56:07.568Z,103429.78
2019-03-22T12:58:39.666Z,103431.69
2019-03-22T13:01:11.794Z,103440.26
2019-03-22T13:03:44.447Z,103434.08
2019-03-22T13:06:16.543Z,103427.49
2019-03-22T13:08:48.578Z,103424.72
2019-03-22T13:11:21.976Z,103419.86
2019-03-22T13:13:54.032Z,103419.30
2019-03-22T13:16:26.153Z,103411.31
2019-03-22T13:18:58.188Z,103410.42
2019-03-22T13:21:30.207Z,103403.67
2019-03-22T13:24:02.560Z,103406.37
2019-03-22T13:26:34.656Z,103404.33
2019-03-22T13:29:06.758Z,103406.80
2019-03-22T13:31:38.760Z,103394.08
2019-03-22T13:34:10.792Z,103388.00
2019-03-22T13:36:42.885Z,103390.95
2019-03-22T13:39:14.889Z,103382.72
2019-03-22T13:41:46.942Z,103381.99
2019-03-22T13:44:18.927Z,103377.55
2019-03-22T13:46:51.137Z,103371.61
2019-03-22T13:49:23.155Z,103371.02
2019-03-22T13:51:57.548Z,103369.66
2019-03-22T13:54:30.219Z,103371.20
2019-03-22T13:57:02.307Z,103366.88
2019-03-22T13:59:34.472Z,103366.94
2019-03-22T14:02:06.639Z,103374.03
2019-03-22T14:04:39.008Z,103365.53
2019-03-22T14:07:11.327Z,103359.96
2019-03-22T14:09:43.800Z,103358.50
2019-03-22T14:12:17.775Z,103350.24
2019-03-22T14:14:50.175Z,103343.95
2019-03-22T14:26:38.666Z,103329.53
2019-03-22T14:29:13.703Z,103328.95
2019-03-22T14:31:46.811Z,103329.35
2019-03-22T14:34:20.671Z,103323.55
2019-03-22T14:36:58.312Z,103323.78
2019-03-22T14:39:31.792Z,103319.67
2019-03-22T14:42:03.976Z,103317.63
2019-03-22T14:44:36.646Z,103317.84
2019-03-22T14:47:12.970Z,103308.97
2019-03-22T14:49:47.526Z,103303.60
2019-03-22T14:52:24.276Z,103298.16
2019-03-22T14:54:58.518Z,103299.11
2019-03-22T14:57:48.664Z,103294.41
2019-03-22T15:00:18.003Z,103292.48
2019-03-22T15:02:54.441Z,103289.86
2019-03-22T15:05:41.602Z,103282.38
2019-03-22T15:08:17.154Z,103276.20
2019-03-22T15:10:53.819Z,103274.91
2019-03-22T15:13:32.441Z,103270.87
2019-03-22T15:19:21.762Z,103268.59
2019-03-22T15:22:01.620Z,103267.36
2019-03-22T15:24:35.656Z,103259.27
2019-03-22T15:27:09.749Z,103255.86
2019-03-22T15:29:49.763Z,103248.19
2019-03-22T15:32:39.092Z,103252.53
2019-03-22T15:35:31.065Z,103245.61
2019-03-22T15:38:20.632Z,103236.41
2019-03-22T15:40:52.769Z,103234.22
2019-03-22T15:43:25.235Z,103237.05
2019-03-22T15:45:57.382Z,103230.23
2019-03-22T15:48:29.777Z,103230.61
2019-03-22T15:51:01.804Z,103218.02
2019-03-22T15:53:34.227Z,103219.35
2019-03-22T15:56:06.416Z,103217.55
2019-03-22T15:58:38.451Z,103217.11
2019-03-22T16:01:11.310Z,103210.84
2019-03-22T16:03:44.477Z,103202.73
2019-03-22T16:06:19.386Z,103202.08
2019-03-22T16:08:51.834Z,103197.54
2019-03-22T16:11:24.058Z,103194.44
2019-03-22T16:13:56.216Z,103196.48
2019-03-22T16:16:28.580Z,103195.50
2019-03-22T16:19:04.593Z,103196.36
2019-03-22T16:21:36.846Z,103192.27
2019-03-22T16:24:10.216Z,103194.70
2019-03-22T16:26:44.035Z,103189.77
2019-03-22T16:29:16.154Z,103177.05
2019-03-22T16:31:53.139Z,103180.16
2019-03-22T16:34:26.744Z,103177.83
2019-03-22T16:36:59.188Z,103178.05
2019-03-22T16:39:34.394Z,103169.72
2019-03-22T16:42:07.452Z,103174.28
2019-03-22T16:44:41.971Z,103161.80
2019-03-22T16:47:13.965Z,103158.63
2019-03-22T16:49:46.225Z,103165.94
2019-03-22T16:52:18.286Z,103163.14
2019-03-22T16:54:50.306Z,103162.23
2019-03-22T16:57:23.153Z,103163.95
2019-03-22T16:59:56.225Z,103159.23
2019-03-22T17:02:28.325Z,103159.39
2019-03-22T17:05:00.481Z,103155.45
2019-03-22T17:07:32.821Z,103149.04
2019-03-22T17:10:07.980Z,103141.59
2019-03-22T17:12:40.046Z,103142.38
2019-03-22T17:15:12.184Z,103144.98
2019-03-22T17:17:45.446Z,103141.14
2019-03-22T17:20:17.565Z,103141.16
2019-03-22T17:22:50.369Z,103128.91
2019-03-22T17:25:22.402Z,103123.82
2019-03-22T17:27:54.861Z,103121.32
2019-03-22T17:30:29.386Z,103126.84
2019-03-22T17:33:01.383Z,103124.33
2019-03-22T17:35:33.490Z,103130.84
2019-03-22T17:38:06.039Z,103132.61
2019-03-22T17:40:38.096Z,103127.45
2019-03-22T17:43:10.106Z,103126.70
2019-03-22T17:45:42.204Z,103131.53
2019-03-22T17:48:14.192Z,103130.67
2019-03-22T17:50:47.081Z,103136.89
2019-03-22T17:53:19.128Z,103133.73
2019-03-22T17:55:51.513Z,103134.70
2019-03-22T17:58:23.912Z,103136.87
2019-03-22T18:00:56.112Z,103141.78
2019-03-22T18:03:28.477Z,103142.14
2019-03-22T18:06:00.518Z,103144.80
2019-03-22T18:08:32.596Z,103148.66
2019-03-22T18:11:04.920Z,103150.07
2019-03-22T18:13:36.957Z,103143.73
2019-03-22T18:16:09.031Z,103144.00
2019-03-22T18:18:41.661Z,103143.08
2019-03-22T18:21:14.329Z,103144.86
2019-03-22T18:23:47.187Z,103143.75
2019-03-22T18:26:19.564Z,103150.06
2019-03-22T18:28:51.974Z,103145.99
2019-03-22T18:31:23.970Z,103142.44
2019-03-22T18:33:56.355Z,103142.61
2019-03-22T18:36:28.340Z,103145.72
2019-03-22T18:39:00.348Z,103140.94
2019-03-22T18:41:32.776Z,103143.99
2019-03-22T18:44:05.051Z,103147.14
2019-03-22T18:46:37.076Z,103139.13
2019-03-22T18:49:09.549Z,103138.63
2019-03-22T18:51:41.689Z,103131.13
2019-03-22T18:54:13.994Z,103133.45
2019-03-22T18:56:46.023Z,103124.16
2019-03-22T18:59:18.088Z,103126.04
2019-03-22T19:01:50.186Z,103122.73
2019-03-22T19:04:22.278Z,103123.98
2019-03-22T19:06:54.362Z,103112.57
2019-03-22T19:09:26.526Z,103120.27
2019-03-22T19:11:58.846Z,103120.38
2019-03-22T19:14:31.683Z,103115.16
2019-03-22T19:17:03.701Z,103112.93
2019-03-22T19:19:35.818Z,103106.53
2019-03-22T19:22:09.096Z,103104.50
2019-03-22T19:24:46.759Z,103101.25
2019-03-22T19:27:20.459Z,103099.69
2019-03-22T19:29:52.454Z,103098.97
2019-03-22T19:32:28.309Z,103101.77
2019-03-22T19:35:00.412Z,103095.18
2019-03-22T19:37:33.196Z,103089.74
2019-03-22T19:40:12.682Z,103085.48
2019-03-22T19:42:45.005Z,103078.50
2019-03-22T19:45:17.501Z,103075.52
2019-03-22T19:47:49.627Z,103069.72
2019-03-22T19:50:21.629Z,103078.06
2019-03-22T19:52:53.960Z,103074.76
2019-03-22T19:55:25.997Z,103073.95
2019-03-22T19:57:57.961Z,103068.87
2019-03-22T20:00:30.030Z,103070.91
2019-03-22T20:03:02.064Z,103064.72
2019-03-22T20:05:34.613Z,103066.00
2019-03-22T20:08:07.020Z,103065.25
2019-03-22T20:10:39.116Z,103066.46
2019-03-22T20:13:11.246Z,103060.13
2019-03-22T20:15:44.192Z,103061.64
2019-03-22T20:18:16.254Z,103054.80
2019-03-22T20:20:48.338Z,103050.11
2019-03-22T20:23:20.362Z,103049.22
2019-03-22T20:25:52.832Z,103047.55
2019-03-22T20:28:24.879Z,103046.83
2019-03-22T20:30:56.866Z,103047.39
2019-03-22T20:33:28.904Z,103050.20
2019-03-22T20:36:01.252Z,103050.27
2019-03-22T20:38:33.278Z,103038.96
2019-03-22T20:41:05.704Z,103041.75
2019-03-22T20:43:37.703Z,103038.67
2019-03-22T20:46:09.738Z,103036.31
2019-03-22T20:48:41.725Z,103032.17
2019-03-22T20:51:14.013Z,103030.73
2019-03-22T20:53:46.081Z,103027.85
2019-03-22T20:56:18.402Z,103027.03
2019-03-22T20:58:50.558Z,103024.15
2019-03-22T21:01:22.692Z,103020.02
2019-03-22T21:03:55.019Z,103017.20
2019-03-22T21:06:27.935Z,103014.61
2019-03-22T21:09:01.358Z,103012.22
2019-03-22T21:14:25.839Z,103012.57
2019-03-22T21:17:00.060Z,103015.45
2019-03-22T21:19:32.276Z,103013.25
2019-03-22T21:22:05.568Z,103009.45
2019-03-22T21:24:37.658Z,103007.48
2019-03-22T21:27:15.378Z,103007.22
2019-03-22T21:29:44.290Z,103005.19
2019-03-22T21:32:18.699Z,102996.54
2019-03-22T21:34:50.950Z,102993.33
2019-03-22T21:37:23.020Z,102997.16
2019-03-22T21:39:55.166Z,103000.46
2019-03-22T21:42:27.445Z,102999.55
2019-03-22T21:44:59.804Z,102999.64
2019-03-22T21:47:32.231Z,102999.31
2019-03-22T21:50:06.746Z,103000.72
2019-03-22T21:52:38.761Z,102993.88
2019-03-22T21:55:11.453Z,103002.48
2019-03-22T21:57:44.195Z,102999.59
2019-03-22T22:00:16.736Z,102997.53
2019-03-22T22:02:48.868Z,102992.78
2019-03-22T22:05:21.678Z,102988.48
2019-03-22T22:07:53.727Z,102991.43
2019-03-22T22:10:25.812Z,102986.26
2019-03-22T22:12:57.794Z,102985.30
2019-03-22T22:15:29.835Z,102982.29
2019-03-22T22:18:03.912Z,102982.61
2019-03-22T22:20:36.075Z,102978.69
2019-03-22T22:23:08.781Z,102982.09
2019-03-22T22:25:46.993Z,102977.67
2019-03-22T22:28:20.939Z,102971.97
2019-03-22T22:30:53.255Z,102970.03
2019-03-22T22:33:25.953Z,102962.34
2019-03-22T22:35:59.045Z,102957.00
2019-03-22T22:38:31.738Z,102950.12
2019-03-22T22:41:03.740Z,102953.52
2019-03-22T22:43:38.941Z,102941.77
2019-03-22T22:46:11.946Z,102937.52
2019-03-22T22:48:45.621Z,102927.46
2019-03-22T22:51:17.632Z,102922.69
2019-03-22T22:53:49.647Z,102919.97
2019-03-22T22:56:21.738Z,102918.31
2019-03-22T22:58:53.775Z,102918.47
2019-03-22T23:01:25.792Z,102914.87
2019-03-22T23:03:57.810Z,102908.06
2019-03-22T23:06:29.852Z,102905.38
2019-03-22T23:09:01.886Z,102906.09
2019-03-22T23:11:33.978Z,102895.85
2019-03-22T23:14:05.962Z,102898.34
2019-03-22T23:16:37.980Z,102884.22
2019-03-22T23:19:10.010Z,102880.39
2019-03-22T23:21:42.048Z,102872.80
2019-03-22T23:24:14.333Z,102875.81
2019-03-22T23:26:46.664Z,102857.90
2019-03-22T23:29:18.986Z,102864.09
2019-03-22T23:31:51.029Z,102857.05
2019-03-22T23:34:23.132Z,102853.05
2019-03-22T23:36:55.236Z,102848.96
2019-03-22T23:39:27.268Z,102842.42
2019-03-22T23:41:59.367Z,102841.66
2019-03-22T23:44:31.375Z,102838.06
2019-03-22T23:47:03.425Z,102842.42
2019-03-22T23:49:35.711Z,102834.49
2019-03-22T23:52:07.875Z,102830.56
2019-03-22T23:54:39.940Z,102833.70
2019-03-22T23:57:11.984Z,102833.54
2019-03-22T23:59:45.244Z,102826.08
